Time;durP1;ratioP1;P1;durP2;ratioP2;P2;SDS_P1;SDS_P2;PMS_P1;PMS_P2;Temp;Humidity;BMP_temperature;BMP_pressure;BME280_temperature;BME280_humidity;BME280_pressure;Samples;Min_cycle;Max_cycle;Signal;HPM_P1;HPM_P2
2021/12/18 00:00:57;;;;;;;;;;;1.60;99.90;;;;;;5083982;28;20037;-79
2021/12/18 00:03:23;;;;;;;;;;;1.70;99.90;;;;;;5082455;28;19915;-78
2021/12/18 00:05:49;;;;;;;;;;;1.70;99.90;;;;;;5082623;28;19908;-79
2021/12/18 00:08:14;;;;;;;;;;;1.60;99.90;;;;;;5066352;28;20006;-77
2021/12/18 00:10:40;;;;;;;;;;;1.70;99.90;;;;;;5080868;28;19927;-79
2021/12/18 00:13:05;;;;;;;;;;;1.70;99.90;;;;;;5073115;28;19912;-76
2021/12/18 00:15:31;;;;;;;;;;;1.70;99.90;;;;;;5087740;28;20315;-77
2021/12/18 00:17:56;;;;;;;;;;;1.70;99.90;;;;;;5081441;28;19912;-79
2021/12/18 00:20:25;;;;;;;;;;;1.60;99.90;;;;;;5082510;28;19983;-77
2021/12/18 00:22:51;;;;;;;;;;;1.50;99.90;;;;;;5080688;28;19916;-79
2021/12/18 00:25:16;;;;;;;;;;;1.60;99.90;;;;;;5086696;28;19908;-76
2021/12/18 00:27:42;;;;;;;;;;;1.60;99.90;;;;;;5079584;28;20086;-79
2021/12/18 00:30:08;;;;;;;;;;;1.60;99.90;;;;;;5065752;28;19914;-77
2021/12/18 00:32:33;;;;;;;;;;;1.60;99.90;;;;;;5082228;28;19942;-79
2021/12/18 00:34:59;;;;;;;;;;;1.60;99.90;;;;;;5082749;28;20360;-77
2021/12/18 00:37:24;;;;;;;;;;;1.50;99.90;;;;;;5063829;28;19912;-78
2021/12/18 00:39:58;;;;;;;;;;;1.40;99.90;;;;;;5086319;28;19912;-80
2021/12/18 00:44:51;;;;;;;;;;;1.30;99.90;;;;;;5081686;28;19908;-80
2021/12/18 00:47:17;;;;;;;;;;;1.40;99.90;;;;;;5080772;28;20015;-78
2021/12/18 00:49:43;;;;;;;;;;;1.40;99.90;;;;;;5083843;28;19904;-78
2021/12/18 00:52:08;;;;;;;;;;;1.40;99.90;;;;;;5081603;28;19919;-78
2021/12/18 00:54:35;;;;;;;;;;;1.40;99.90;;;;;;5064920;28;20326;-78
2021/12/18 00:57:01;;;;;;;;;;;1.50;99.90;;;;;;5065850;28;19923;-81
2021/12/18 00:59:26;;;;;;;;;;;1.40;99.90;;;;;;5065526;28;19912;-77
2021/12/18 01:01:52;;;;;;;;;;;1.40;99.90;;;;;;5083974;28;20383;-78
2021/12/18 01:04:18;;;;;;;;;;;1.30;99.90;;;;;;5089225;28;19985;-77
2021/12/18 01:06:44;;;;;;;;;;;1.30;99.90;;;;;;5070060;28;19912;-79
2021/12/18 01:09:09;;;;;;;;;;;1.30;99.90;;;;;;5088880;28;19912;-77
2021/12/18 01:11:42;;;;;;;;;;;1.40;99.90;;;;;;5083854;28;19912;-80
2021/12/18 01:15:02;;;;;;;;;;;1.40;99.90;;;;;;5086526;28;19908;-77
2021/12/18 01:24:53;;;;;;;;;;;1.60;99.90;;;;;;5067220;28;19965;-77
2021/12/18 01:27:19;;;;;;;;;;;1.40;99.90;;;;;;5065732;28;19912;-77
2021/12/18 01:29:45;;;;;;;;;;;1.30;99.90;;;;;;5069877;28;19974;-79
2021/12/18 01:32:10;;;;;;;;;;;1.30;99.90;;;;;;5085992;28;19920;-80
2021/12/18 01:34:36;;;;;;;;;;;1.30;99.90;;;;;;5085159;28;20287;-77
2021/12/18 01:37:02;;;;;;;;;;;1.40;99.90;;;;;;5068178;28;19912;-79
2021/12/18 01:39:28;;;;;;;;;;;1.40;99.90;;;;;;5068098;28;19915;-77
2021/12/18 01:52:53;;;;;;;;;;;1.30;99.90;;;;;;5083556;28;19970;-80
2021/12/18 01:55:20;;;;;;;;;;;1.20;99.90;;;;;;5068123;28;19908;-77
2021/12/18 01:57:45;;;;;;;;;;;1.20;99.90;;;;;;5085624;28;19919;-78
2021/12/18 02:00:31;;;;;;;;;;;1.30;99.90;;;;;;5064612;28;19908;-79
2021/12/18 02:02:57;;;;;;;;;;;1.30;99.90;;;;;;5059845;28;20003;-79
2021/12/18 02:05:22;;;;;;;;;;;1.20;99.90;;;;;;5065448;28;20023;-78
2021/12/18 02:07:48;;;;;;;;;;;1.30;99.90;;;;;;5084709;28;19938;-80
2021/12/18 02:10:20;;;;;;;;;;;1.20;99.90;;;;;;5081999;28;19912;-79
2021/12/18 02:12:55;;;;;;;;;;;1.10;99.90;;;;;;5084475;28;19962;-79
2021/12/18 02:20:58;;;;;;;;;;;1.10;99.90;;;;;;5084608;28;20441;-78
2021/12/18 02:23:24;;;;;;;;;;;1.20;99.90;;;;;;5082916;28;20390;-78
2021/12/18 02:25:49;;;;;;;;;;;1.20;99.90;;;;;;5066785;28;19987;-77
2021/12/18 02:28:22;;;;;;;;;;;1.20;99.90;;;;;;5082216;28;19917;-78
2021/12/18 02:30:49;;;;;;;;;;;1.20;99.90;;;;;;5083082;28;19912;-77
2021/12/18 02:33:14;;;;;;;;;;;1.10;99.90;;;;;;5082939;28;20356;-78
2021/12/18 02:35:47;;;;;;;;;;;1.00;99.90;;;;;;5063791;28;19916;-77
2021/12/18 02:38:18;;;;;;;;;;;1.00;99.90;;;;;;5087149;28;19948;-78
2021/12/18 02:40:55;;;;;;;;;;;1.00;99.90;;;;;;5082602;28;19919;-78
2021/12/18 02:43:25;;;;;;;;;;;1.00;99.90;;;;;;5082492;28;20286;-81
2021/12/18 02:45:54;;;;;;;;;;;1.10;99.90;;;;;;5082404;28;19915;-79
2021/12/18 02:48:20;;;;;;;;;;;1.00;99.90;;;;;;5082053;28;19912;-80
2021/12/18 02:50:46;;;;;;;;;;;1.10;99.90;;;;;;5082934;28;19954;-81
2021/12/18 02:53:11;;;;;;;;;;;1.10;99.90;;;;;;5084757;28;19927;-78
2021/12/18 02:55:37;;;;;;;;;;;1.20;99.90;;;;;;5084953;28;20355;-78
2021/12/18 02:58:02;;;;;;;;;;;1.20;99.90;;;;;;5074975;28;19912;-80
2021/12/18 03:00:29;;;;;;;;;;;1.20;99.90;;;;;;5083582;28;19908;-79
2021/12/18 03:02:55;;;;;;;;;;;1.10;99.90;;;;;;5084652;28;19915;-77
2021/12/18 03:05:28;;;;;;;;;;;1.00;99.90;;;;;;5086083;28;19908;-81
2021/12/18 03:08:01;;;;;;;;;;;1.10;99.90;;;;;;5083946;28;19922;-77
2021/12/18 03:19:27;;;;;;;;;;;1.00;99.90;;;;;;5083993;28;20006;-78
2021/12/18 03:24:28;;;;;;;;;;;0.90;99.90;;;;;;5081090;28;20027;-79
2021/12/18 03:26:54;;;;;;;;;;;0.90;99.90;;;;;;5082332;28;20321;-79
2021/12/18 03:29:19;;;;;;;;;;;1.00;99.90;;;;;;5063468;28;19956;-80
2021/12/18 03:31:45;;;;;;;;;;;1.00;99.90;;;;;;5065829;28;19939;-78
2021/12/18 03:34:10;;;;;;;;;;;1.00;99.90;;;;;;5088240;28;19962;-79
2021/12/18 03:36:36;;;;;;;;;;;0.90;99.90;;;;;;5064800;28;19920;-78
2021/12/18 03:39:02;;;;;;;;;;;0.90;99.90;;;;;;5051654;28;19958;-78
2021/12/18 03:41:27;;;;;;;;;;;0.90;99.90;;;;;;5082555;28;20449;-80
2021/12/18 03:43:53;;;;;;;;;;;1.00;99.90;;;;;;5065676;28;20065;-80
2021/12/18 03:46:19;;;;;;;;;;;1.10;99.90;;;;;;5081026;28;20011;-78
2021/12/18 03:48:44;;;;;;;;;;;1.10;99.90;;;;;;5081873;28;20383;-81
2021/12/18 03:51:10;;;;;;;;;;;1.00;99.90;;;;;;5064558;28;19913;-82
2021/12/18 03:53:35;;;;;;;;;;;1.00;99.90;;;;;;5085788;28;19921;-80
2021/12/18 03:56:02;;;;;;;;;;;1.00;99.90;;;;;;5083777;28;19951;-82
2021/12/18 03:58:28;;;;;;;;;;;1.00;99.90;;;;;;5082022;28;20002;-78
2021/12/18 04:00:53;;;;;;;;;;;0.80;99.90;;;;;;5063145;28;19912;-78
2021/12/18 04:03:19;;;;;;;;;;;0.80;99.90;;;;;;5063453;28;19998;-81
2021/12/18 04:05:44;;;;;;;;;;;0.90;99.90;;;;;;5065180;28;19916;-80
2021/12/18 04:08:10;;;;;;;;;;;1.00;99.90;;;;;;5065794;28;19972;-79
2021/12/18 04:10:40;;;;;;;;;;;1.00;99.90;;;;;;5066810;28;20332;-78
2021/12/18 04:13:06;;;;;;;;;;;1.00;99.90;;;;;;5087351;28;19916;-78
2021/12/18 04:15:32;;;;;;;;;;;1.00;99.90;;;;;;5081138;28;19968;-79
2021/12/18 04:17:58;;;;;;;;;;;1.00;99.90;;;;;;5084377;28;19938;-79
2021/12/18 04:20:24;;;;;;;;;;;0.90;99.90;;;;;;5082897;28;20366;-78
2021/12/18 04:22:50;;;;;;;;;;;0.80;99.90;;;;;;5061698;28;19916;-78
2021/12/18 04:25:15;;;;;;;;;;;0.80;99.90;;;;;;5084653;28;19912;-79
2021/12/18 04:27:41;;;;;;;;;;;0.80;99.90;;;;;;5061493;28;20290;-79
2021/12/18 04:30:07;;;;;;;;;;;0.80;99.90;;;;;;5062677;28;20013;-79
2021/12/18 04:32:33;;;;;;;;;;;1.00;99.90;;;;;;5081927;28;20407;-81
2021/12/18 04:34:58;;;;;;;;;;;0.90;99.90;;;;;;5085810;28;20433;-79
2021/12/18 04:37:24;;;;;;;;;;;1.10;99.90;;;;;;5085133;28;19912;-79
2021/12/18 04:39:50;;;;;;;;;;;1.00;99.90;;;;;;5085251;28;19934;-80
2021/12/18 04:42:16;;;;;;;;;;;1.00;99.90;;;;;;5087754;28;19919;-84
2021/12/18 04:44:41;;;;;;;;;;;1.00;99.90;;;;;;5085906;28;19908;-79
2021/12/18 04:47:07;;;;;;;;;;;0.90;99.90;;;;;;5084837;28;19920;-80
2021/12/18 04:49:32;;;;;;;;;;;0.90;99.90;;;;;;5069710;28;19912;-78
2021/12/18 04:51:58;;;;;;;;;;;0.80;99.90;;;;;;5084795;28;19912;-81
2021/12/18 04:54:23;;;;;;;;;;;0.80;99.90;;;;;;5068283;28;19927;-77
2021/12/18 04:56:49;;;;;;;;;;;0.90;99.90;;;;;;5083370;28;19916;-77
2021/12/18 04:59:15;;;;;;;;;;;0.90;99.90;;;;;;5087425;28;19912;-78
2021/12/18 05:01:40;;;;;;;;;;;0.90;99.90;;;;;;5068012;28;19912;-77
2021/12/18 05:04:11;;;;;;;;;;;0.80;99.90;;;;;;5088465;28;19940;-82
2021/12/18 05:06:39;;;;;;;;;;;0.80;99.90;;;;;;5084707;28;20367;-79
2021/12/18 05:09:05;;;;;;;;;;;0.70;99.90;;;;;;5087585;28;19930;-81
2021/12/18 05:11:31;;;;;;;;;;;0.70;99.90;;;;;;5067075;28;19982;-80
2021/12/18 05:13:57;;;;;;;;;;;0.80;99.90;;;;;;5085887;28;19916;-78
2021/12/18 05:16:22;;;;;;;;;;;0.90;99.90;;;;;;5065877;28;19919;-78
2021/12/18 05:18:48;;;;;;;;;;;0.90;99.90;;;;;;5061823;28;20280;-80
2021/12/18 05:21:13;;;;;;;;;;;0.90;99.90;;;;;;5086137;28;19912;-78
2021/12/18 05:23:39;;;;;;;;;;;0.90;99.90;;;;;;5087884;28;19919;-81
2021/12/18 05:26:04;;;;;;;;;;;0.80;99.90;;;;;;5087483;28;19947;-78
2021/12/18 05:28:30;;;;;;;;;;;0.70;99.90;;;;;;5084692;28;19912;-77
2021/12/18 05:30:55;;;;;;;;;;;0.70;99.90;;;;;;5068026;28;19935;-79
2021/12/18 05:33:21;;;;;;;;;;;0.70;99.90;;;;;;5067942;28;20429;-78
2021/12/18 05:35:46;;;;;;;;;;;0.60;99.90;;;;;;5087198;28;19912;-78
2021/12/18 05:38:12;;;;;;;;;;;0.70;99.90;;;;;;5083365;28;20279;-78
2021/12/18 05:40:38;;;;;;;;;;;0.70;99.90;;;;;;5083241;28;19912;-79
2021/12/18 05:43:04;;;;;;;;;;;0.80;99.90;;;;;;5086573;28;20298;-79
2021/12/18 05:45:29;;;;;;;;;;;0.80;99.90;;;;;;5084374;28;20381;-79
2021/12/18 05:47:55;;;;;;;;;;;0.80;99.90;;;;;;5052111;28;19946;-78
2021/12/18 05:50:21;;;;;;;;;;;0.70;99.90;;;;;;5087296;28;20415;-81
2021/12/18 05:52:48;;;;;;;;;;;0.70;99.90;;;;;;5082550;28;19916;-77
2021/12/18 05:55:15;;;;;;;;;;;0.60;99.90;;;;;;5086595;28;20011;-79
2021/12/18 05:57:41;;;;;;;;;;;0.60;99.90;;;;;;5085922;28;19908;-78
2021/12/18 06:00:08;;;;;;;;;;;0.50;99.90;;;;;;5082089;28;19908;-77
2021/12/18 06:02:34;;;;;;;;;;;0.50;99.90;;;;;;5084445;28;19912;-81
2021/12/18 06:04:59;;;;;;;;;;;0.60;99.90;;;;;;5071587;28;20798;-80
2021/12/18 06:07:30;;;;;;;;;;;0.60;99.90;;;;;;5068522;28;19918;-80
2021/12/18 06:09:56;;;;;;;;;;;0.60;99.90;;;;;;5085316;28;20007;-78
2021/12/18 06:12:21;;;;;;;;;;;0.70;99.90;;;;;;5063975;28;20380;-77
2021/12/18 06:14:47;;;;;;;;;;;0.70;99.90;;;;;;5084841;28;19915;-78
2021/12/18 06:17:12;;;;;;;;;;;0.60;99.90;;;;;;5082445;28;19912;-85
2021/12/18 06:19:38;;;;;;;;;;;0.60;99.90;;;;;;5082314;28;20363;-79
2021/12/18 06:22:03;;;;;;;;;;;0.50;99.90;;;;;;5065179;28;20359;-79
2021/12/18 06:24:29;;;;;;;;;;;0.60;99.90;;;;;;5085250;28;19934;-80
2021/12/18 06:26:55;;;;;;;;;;;0.60;99.90;;;;;;5084850;28;20015;-79
2021/12/18 06:29:21;;;;;;;;;;;0.70;99.90;;;;;;5086212;28;19907;-78
2021/12/18 06:31:47;;;;;;;;;;;0.70;99.90;;;;;;5067111;28;19912;-81
2021/12/18 06:34:12;;;;;;;;;;;0.80;99.90;;;;;;5087155;28;19916;-79
2021/12/18 06:36:38;;;;;;;;;;;0.80;99.90;;;;;;5069630;28;20003;-80
2021/12/18 06:39:04;;;;;;;;;;;0.70;99.90;;;;;;5080860;28;20306;-77
2021/12/18 06:41:29;;;;;;;;;;;0.60;99.90;;;;;;5061277;28;19969;-78
2021/12/18 06:43:55;;;;;;;;;;;0.60;99.90;;;;;;5067847;28;20352;-78
2021/12/18 06:46:20;;;;;;;;;;;0.70;99.90;;;;;;5085992;28;19916;-80
2021/12/18 06:48:46;;;;;;;;;;;0.60;99.90;;;;;;5063673;28;19912;-81
2021/12/18 06:51:11;;;;;;;;;;;0.60;99.90;;;;;;5087700;28;19912;-79
2021/12/18 06:53:37;;;;;;;;;;;0.60;99.90;;;;;;5083420;28;20003;-78
2021/12/18 06:56:04;;;;;;;;;;;0.70;99.90;;;;;;5083543;28;19908;-78
2021/12/18 06:58:29;;;;;;;;;;;0.80;99.90;;;;;;5066136;28;19919;-79
2021/12/18 07:00:55;;;;;;;;;;;0.80;99.90;;;;;;5063053;28;19916;-77
2021/12/18 07:03:22;;;;;;;;;;;0.80;99.90;;;;;;5080958;28;20363;-78
2021/12/18 07:05:48;;;;;;;;;;;0.80;99.90;;;;;;5083863;28;20364;-78
2021/12/18 07:08:14;;;;;;;;;;;0.80;99.90;;;;;;5081922;28;19997;-78
2021/12/18 07:10:39;;;;;;;;;;;0.70;99.90;;;;;;5083602;28;19949;-79
2021/12/18 07:13:05;;;;;;;;;;;0.60;99.90;;;;;;5083231;28;20397;-77
2021/12/18 07:15:30;;;;;;;;;;;0.60;99.90;;;;;;5063905;28;20305;-78
2021/12/18 07:17:57;;;;;;;;;;;0.60;99.90;;;;;;5079738;28;20368;-82
2021/12/18 07:20:23;;;;;;;;;;;0.60;99.90;;;;;;5080887;28;19920;-77
2021/12/18 07:22:48;;;;;;;;;;;0.60;99.90;;;;;;5065986;28;20091;-79
2021/12/18 07:25:14;;;;;;;;;;;0.50;99.90;;;;;;5064923;28;19919;-83
2021/12/18 07:27:39;;;;;;;;;;;0.50;99.90;;;;;;5084118;28;20306;-80
2021/12/18 07:30:05;;;;;;;;;;;0.50;99.90;;;;;;5083730;28;19912;-79
2021/12/18 07:32:31;;;;;;;;;;;0.40;99.90;;;;;;5052446;28;19959;-82
2021/12/18 07:34:57;;;;;;;;;;;0.40;99.90;;;;;;5087537;28;19951;-84
2021/12/18 07:37:24;;;;;;;;;;;0.40;99.90;;;;;;5065360;28;19919;-85
2021/12/18 07:39:52;;;;;;;;;;;0.40;99.90;;;;;;5082400;28;19952;-88
2021/12/18 07:42:18;;;;;;;;;;;0.30;99.90;;;;;;5080897;28;19908;-87
2021/12/18 07:44:44;;;;;;;;;;;0.40;99.90;;;;;;5063830;28;19915;-88
2021/12/18 07:47:09;;;;;;;;;;;0.50;99.90;;;;;;5081575;28;19908;-85
2021/12/18 07:49:35;;;;;;;;;;;0.50;99.90;;;;;;5080925;28;19979;-84
2021/12/18 07:52:03;;;;;;;;;;;0.50;99.90;;;;;;5081295;28;20383;-82
2021/12/18 07:54:29;;;;;;;;;;;0.50;99.90;;;;;;5041286;28;1116139;-83
2021/12/18 07:56:55;;;;;;;;;;;0.50;99.90;;;;;;5083698;28;19918;-84
2021/12/18 07:59:20;;;;;;;;;;;0.60;99.90;;;;;;5067039;28;20349;-85
2021/12/18 08:01:46;;;;;;;;;;;0.50;99.90;;;;;;5079719;28;20429;-85
2021/12/18 08:04:11;;;;;;;;;;;0.60;99.90;;;;;;5082741;28;19912;-85
2021/12/18 08:06:37;;;;;;;;;;;0.50;99.90;;;;;;5083353;28;19915;-83
2021/12/18 08:09:02;;;;;;;;;;;0.50;99.90;;;;;;5083252;28;19986;-84
2021/12/18 08:11:28;;;;;;;;;;;0.60;99.90;;;;;;5084687;28;20402;-84
2021/12/18 08:13:54;;;;;;;;;;;0.60;99.90;;;;;;5087559;28;19920;-84
2021/12/18 08:16:19;;;;;;;;;;;0.50;99.90;;;;;;5070394;28;20294;-87
2021/12/18 08:18:45;;;;;;;;;;;0.50;99.90;;;;;;5081569;28;19958;-84
2021/12/18 08:21:10;;;;;;;;;;;0.50;99.90;;;;;;5067430;28;19939;-83
2021/12/18 08:23:36;;;;;;;;;;;0.50;99.90;;;;;;5070381;28;19912;-86
2021/12/18 08:26:02;;;;;;;;;;;0.60;99.90;;;;;;5067525;28;19919;-84
2021/12/18 08:28:27;;;;;;;;;;;0.60;99.90;;;;;;5070352;28;19964;-82
2021/12/18 08:30:53;;;;;;;;;;;0.70;99.90;;;;;;5087200;28;19916;-84
2021/12/18 08:33:19;;;;;;;;;;;0.60;99.90;;;;;;5068805;28;19973;-84
2021/12/18 08:35:44;;;;;;;;;;;0.50;99.90;;;;;;5069936;28;19920;-84
2021/12/18 08:38:10;;;;;;;;;;;0.40;99.90;;;;;;5071494;28;19916;-85
2021/12/18 08:40:36;;;;;;;;;;;0.50;99.90;;;;;;5087260;28;19912;-85
2021/12/18 08:43:02;;;;;;;;;;;0.50;99.90;;;;;;5085686;28;19915;-84
2021/12/18 08:45:28;;;;;;;;;;;0.60;99.90;;;;;;5068440;28;19958;-86
2021/12/18 08:47:55;;;;;;;;;;;0.70;99.90;;;;;;5088356;28;19916;-84
2021/12/18 08:50:20;;;;;;;;;;;0.60;99.90;;;;;;5087267;28;19916;-84
2021/12/18 08:52:47;;;;;;;;;;;0.80;99.90;;;;;;5086965;28;20420;-85
2021/12/18 08:55:13;;;;;;;;;;;0.80;99.90;;;;;;5083194;28;19916;-85
2021/12/18 08:57:38;;;;;;;;;;;0.70;99.90;;;;;;5066872;28;19908;-84
2021/12/18 09:00:05;;;;;;;;;;;0.60;99.90;;;;;;5067259;28;19912;-82
2021/12/18 09:02:30;;;;;;;;;;;0.50;99.90;;;;;;5086142;28;20294;-85
2021/12/18 09:04:56;;;;;;;;;;;0.60;99.90;;;;;;5068941;28;19912;-84
2021/12/18 09:07:22;;;;;;;;;;;0.70;99.90;;;;;;5068922;28;20019;-85
2021/12/18 09:09:48;;;;;;;;;;;0.70;99.90;;;;;;5082129;28;19992;-85
2021/12/18 09:12:13;;;;;;;;;;;0.80;99.90;;;;;;5085207;28;20011;-86
2021/12/18 09:14:39;;;;;;;;;;;0.80;99.90;;;;;;5085848;28;19908;-84
2021/12/18 09:17:05;;;;;;;;;;;0.70;99.90;;;;;;5087398;28;19912;-83
2021/12/18 09:19:31;;;;;;;;;;;0.70;99.90;;;;;;5087710;28;19908;-84
2021/12/18 09:21:59;;;;;;;;;;;0.70;99.90;;;;;;5087315;28;19908;-82
2021/12/18 09:24:24;;;;;;;;;;;0.60;99.90;;;;;;5084355;28;19930;-84
2021/12/18 09:26:51;;;;;;;;;;;0.60;99.90;;;;;;5089016;28;20007;-86
2021/12/18 09:29:18;;;;;;;;;;;0.70;99.90;;;;;;5089441;28;19999;-86
2021/12/18 09:31:43;;;;;;;;;;;0.70;99.90;;;;;;5069762;28;19912;-84
2021/12/18 09:34:09;;;;;;;;;;;0.80;99.90;;;;;;5073330;28;19939;-82
2021/12/18 09:36:34;;;;;;;;;;;0.80;99.90;;;;;;5070550;28;19916;-83
2021/12/18 09:39:00;;;;;;;;;;;0.90;99.90;;;;;;5084270;28;19908;-82
2021/12/18 09:41:26;;;;;;;;;;;0.90;99.90;;;;;;5068800;28;19912;-83
2021/12/18 09:43:51;;;;;;;;;;;0.90;99.90;;;;;;5071150;28;19965;-84
2021/12/18 09:46:17;;;;;;;;;;;0.80;99.90;;;;;;5086683;28;19912;-83
2021/12/18 09:48:43;;;;;;;;;;;0.70;99.90;;;;;;5066752;28;19955;-82
2021/12/18 09:51:18;;;;;;;;;;;0.70;99.90;;;;;;5085308;28;19908;-84
2021/12/18 09:53:44;;;;;;;;;;;0.70;99.90;;;;;;5063731;28;20403;-83
2021/12/18 09:56:09;;;;;;;;;;;0.80;99.90;;;;;;5067136;28;20011;-84
2021/12/18 09:58:35;;;;;;;;;;;0.70;99.90;;;;;;5070933;28;19935;-81
2021/12/18 10:01:00;;;;;;;;;;;0.60;99.90;;;;;;5064213;28;19936;-84
2021/12/18 10:03:48;;;;;;;;;;;0.80;99.90;;;;;;5064502;28;20272;-84
2021/12/18 10:06:28;;;;;;;;;;;0.70;99.90;;;;;;5063580;28;19912;-82
2021/12/18 10:08:53;;;;;;;;;;;0.70;99.90;;;;;;5075554;28;19959;-79
2021/12/18 10:11:19;;;;;;;;;;;0.70;99.90;;;;;;5086315;28;19919;-80
2021/12/18 10:13:52;;;;;;;;;;;0.80;99.90;;;;;;5075431;28;20621;-85
2021/12/18 10:16:18;;;;;;;;;;;0.80;99.90;;;;;;5070654;28;19913;-88
2021/12/18 10:18:43;;;;;;;;;;;0.90;99.90;;;;;;5067237;28;19927;-86
2021/12/18 10:21:14;;;;;;;;;;;0.80;99.90;;;;;;5067826;28;20030;-84
2021/12/18 10:23:41;;;;;;;;;;;0.80;99.90;;;;;;5070471;28;19947;-84
2021/12/18 10:26:06;;;;;;;;;;;0.90;99.90;;;;;;5066419;28;19919;-85
2021/12/18 10:28:42;;;;;;;;;;;0.90;99.90;;;;;;5066789;28;19940;-86
2021/12/18 10:31:08;;;;;;;;;;;0.80;99.90;;;;;;5057059;28;19916;-85
2021/12/18 10:33:35;;;;;;;;;;;0.70;99.90;;;;;;5059808;28;19917;-86
2021/12/18 10:36:01;;;;;;;;;;;0.70;99.90;;;;;;5060259;28;19909;-87
2021/12/18 10:38:48;;;;;;;;;;;0.80;99.90;;;;;;5066165;28;19956;-87
2021/12/18 10:41:25;;;;;;;;;;;0.80;99.90;;;;;;5062154;28;19912;-85
2021/12/18 10:43:57;;;;;;;;;;;0.90;99.90;;;;;;5065380;28;20383;-85
2021/12/18 10:46:23;;;;;;;;;;;1.00;99.90;;;;;;5065131;28;19948;-86
2021/12/18 10:48:56;;;;;;;;;;;1.00;99.90;;;;;;5064669;28;19930;-87
2021/12/18 10:51:23;;;;;;;;;;;0.90;99.90;;;;;;5061366;28;20399;-85
2021/12/18 10:53:49;;;;;;;;;;;0.90;99.90;;;;;;5077306;28;19999;-87
2021/12/18 10:56:15;;;;;;;;;;;1.00;99.90;;;;;;5084419;28;19915;-84
2021/12/18 10:58:40;;;;;;;;;;;1.10;99.90;;;;;;5082502;28;19915;-86
2021/12/18 11:01:06;;;;;;;;;;;0.90;99.90;;;;;;5082785;28;19962;-86
2021/12/18 11:03:31;;;;;;;;;;;1.10;99.90;;;;;;5084167;28;19919;-85
2021/12/18 11:06:11;;;;;;;;;;;1.00;99.90;;;;;;5084019;28;19908;-87
2021/12/18 11:08:56;;;;;;;;;;;1.10;99.90;;;;;;5065420;28;20302;-86
2021/12/18 11:14:06;;;;;;;;;;;1.00;99.90;;;;;;5087718;28;19922;-90
2021/12/18 11:16:40;;;;;;;;;;;1.10;99.90;;;;;;5070748;28;19909;-84
2021/12/18 11:19:07;;;;;;;;;;;1.00;99.90;;;;;;5088534;28;19912;-89
2021/12/18 11:21:34;;;;;;;;;;;0.90;99.90;;;;;;5086015;28;19911;-86
2021/12/18 11:24:01;;;;;;;;;;;0.90;99.90;;;;;;5066207;28;19909;-85
2021/12/18 11:26:31;;;;;;;;;;;0.90;99.90;;;;;;5071762;28;19931;-87
2021/12/18 11:28:58;;;;;;;;;;;0.80;99.90;;;;;;5087890;28;19908;-90
2021/12/18 11:34:27;;;;;;;;;;;1.00;99.90;;;;;;5089227;28;19927;-87
2021/12/18 11:36:53;;;;;;;;;;;1.00;99.90;;;;;;5084624;28;19908;-84
2021/12/18 11:39:20;;;;;;;;;;;1.10;99.90;;;;;;5087559;28;19908;-84
2021/12/18 11:41:50;;;;;;;;;;;1.00;99.90;;;;;;5086786;28;19916;-87
2021/12/18 11:44:37;;;;;;;;;;;0.90;99.90;;;;;;5088743;28;19922;-85
2021/12/18 11:47:18;;;;;;;;;;;0.90;99.90;;;;;;5072527;28;19989;-86
2021/12/18 11:49:45;;;;;;;;;;;1.00;99.90;;;;;;5085765;28;20002;-86
2021/12/18 11:52:10;;;;;;;;;;;1.00;99.90;;;;;;5087218;28;20436;-86
2021/12/18 11:54:45;;;;;;;;;;;1.10;99.90;;;;;;5087244;28;19916;-84
2021/12/18 11:57:12;;;;;;;;;;;1.00;99.90;;;;;;5075081;28;19908;-84
2021/12/18 11:59:39;;;;;;;;;;;1.00;99.90;;;;;;5087310;28;19908;-86
2021/12/18 12:02:04;;;;;;;;;;;1.10;99.90;;;;;;5084056;28;19923;-87
2021/12/18 12:04:49;;;;;;;;;;;1.00;99.90;;;;;;5071860;28;19912;-87
2021/12/18 12:07:21;;;;;;;;;;;0.90;99.90;;;;;;5081791;28;20329;-84
2021/12/18 12:10:06;;;;;;;;;;;0.90;99.90;;;;;;5089631;28;20023;-85
2021/12/18 12:12:48;;;;;;;;;;;0.90;99.90;;;;;;5084263;28;19912;-86
2021/12/18 12:15:15;;;;;;;;;;;0.80;99.90;;;;;;5070737;28;19913;-86
2021/12/18 12:17:54;;;;;;;;;;;0.90;99.90;;;;;;5090277;28;19908;-85
2021/12/18 12:20:35;;;;;;;;;;;1.00;99.90;;;;;;5088800;28;19951;-85
2021/12/18 12:23:02;;;;;;;;;;;1.10;99.90;;;;;;5060711;28;19916;-84
2021/12/18 12:25:48;;;;;;;;;;;1.00;99.90;;;;;;5083446;28;19915;-85
2021/12/18 12:28:24;;;;;;;;;;;1.00;99.90;;;;;;5080123;28;19915;-85
2021/12/18 12:30:52;;;;;;;;;;;1.00;99.90;;;;;;5083335;28;19999;-85
2021/12/18 12:33:26;;;;;;;;;;;0.90;99.90;;;;;;5048768;28;19999;-86
2021/12/18 12:35:55;;;;;;;;;;;1.00;99.90;;;;;;5086625;28;19935;-84
2021/12/18 12:38:26;;;;;;;;;;;1.20;99.90;;;;;;5067195;28;20438;-84
2021/12/18 12:40:53;;;;;;;;;;;1.00;99.90;;;;;;5085392;28;19920;-83
2021/12/18 12:43:25;;;;;;;;;;;1.00;99.90;;;;;;5070692;28;19916;-88
2021/12/18 12:45:53;;;;;;;;;;;1.00;99.90;;;;;;5065876;28;20002;-85
2021/12/18 12:48:19;;;;;;;;;;;1.10;99.90;;;;;;5085725;28;19912;-83
2021/12/18 12:51:11;;;;;;;;;;;1.10;99.90;;;;;;5083340;28;19908;-86
2021/12/18 12:53:52;;;;;;;;;;;0.90;99.90;;;;;;5078057;28;19924;-83
2021/12/18 12:56:22;;;;;;;;;;;0.90;99.90;;;;;;5090155;23;19932;-89
2021/12/18 12:59:10;;;;;;;;;;;0.90;99.90;;;;;;5108214;28;19919;-87
2021/12/18 13:01:53;;;;;;;;;;;1.00;99.90;;;;;;5110012;27;19912;-89
2021/12/18 13:04:25;;;;;;;;;;;1.20;99.90;;;;;;5107872;28;19981;-89
2021/12/18 13:06:54;;;;;;;;;;;1.10;99.90;;;;;;5104655;28;19904;-87
2021/12/18 13:09:19;;;;;;;;;;;1.20;99.90;;;;;;5088377;28;19908;-89
2021/12/18 13:11:59;;;;;;;;;;;1.20;99.90;;;;;;5104266;28;19911;-88
2021/12/18 13:14:25;;;;;;;;;;;1.30;99.90;;;;;;5103872;28;20003;-90
2021/12/18 13:16:53;;;;;;;;;;;1.20;99.90;;;;;;5103607;28;19962;-89
2021/12/18 13:19:29;;;;;;;;;;;1.30;99.90;;;;;;5103138;28;20079;-88
2021/12/18 13:21:55;;;;;;;;;;;1.20;99.90;;;;;;5100389;28;19903;-88
2021/12/18 13:24:21;;;;;;;;;;;1.10;99.90;;;;;;5096414;28;20278;-88
2021/12/18 13:26:47;;;;;;;;;;;1.10;99.90;;;;;;5098370;28;19908;-87
2021/12/18 13:29:14;;;;;;;;;;;1.00;99.90;;;;;;5097672;28;19939;-89
2021/12/18 13:31:44;;;;;;;;;;;1.00;99.90;;;;;;5095998;28;19939;-88
2021/12/18 13:34:20;;;;;;;;;;;1.00;99.90;;;;;;5098077;28;19912;-89
2021/12/18 13:36:47;;;;;;;;;;;0.90;99.90;;;;;;5096899;28;19994;-87
2021/12/18 13:39:14;;;;;;;;;;;0.80;99.90;;;;;;5100557;28;19908;-86
2021/12/18 13:41:54;;;;;;;;;;;0.90;99.90;;;;;;5092199;28;20260;-89
2021/12/18 13:44:20;;;;;;;;;;;0.80;99.90;;;;;;5086890;28;19918;-87
2021/12/18 13:46:45;;;;;;;;;;;0.70;99.90;;;;;;5074331;28;19908;-87
2021/12/18 13:49:11;;;;;;;;;;;0.70;99.90;;;;;;5087368;28;19904;-86
2021/12/18 13:51:37;;;;;;;;;;;0.80;99.90;;;;;;5083124;28;19904;-88
2021/12/18 13:54:03;;;;;;;;;;;0.90;99.90;;;;;;5087838;28;19908;-87
2021/12/18 13:56:38;;;;;;;;;;;1.00;99.90;;;;;;5093570;28;19947;-87
2021/12/18 13:59:17;;;;;;;;;;;1.00;99.90;;;;;;5097156;28;19992;-87
2021/12/18 14:01:43;;;;;;;;;;;0.90;99.90;;;;;;5077324;28;20355;-87
2021/12/18 14:04:13;;;;;;;;;;;1.00;99.90;;;;;;5095453;28;19948;-88
2021/12/18 14:06:41;;;;;;;;;;;0.90;99.90;;;;;;5084826;28;19927;-88
2021/12/18 14:09:15;;;;;;;;;;;0.80;99.90;;;;;;5090219;28;20248;-86
2021/12/18 14:11:50;;;;;;;;;;;0.70;99.90;;;;;;5077567;28;20347;-86
2021/12/18 14:14:16;;;;;;;;;;;0.60;99.90;;;;;;5095804;28;20015;-88
2021/12/18 14:16:50;;;;;;;;;;;0.60;99.90;;;;;;5075356;28;19912;-88
2021/12/18 14:19:24;;;;;;;;;;;0.60;99.90;;;;;;5077963;28;20358;-87
2021/12/18 14:21:49;;;;;;;;;;;0.50;99.90;;;;;;5095253;28;19916;-90
2021/12/18 14:24:19;;;;;;;;;;;0.50;99.90;;;;;;5094296;28;20314;-86
2021/12/18 14:26:55;;;;;;;;;;;0.60;99.90;;;;;;5091792;28;20007;-87
2021/12/18 14:29:21;;;;;;;;;;;0.60;99.90;;;;;;5076813;28;19931;-87
2021/12/18 14:31:51;;;;;;;;;;;0.60;99.90;;;;;;5086776;28;19908;-88
2021/12/18 14:34:32;;;;;;;;;;;0.50;99.90;;;;;;5095159;28;19954;-87
2021/12/18 14:37:01;;;;;;;;;;;0.50;99.90;;;;;;5089052;28;19912;-87
2021/12/18 14:39:29;;;;;;;;;;;0.50;99.90;;;;;;5094912;28;19953;-88
2021/12/18 14:41:58;;;;;;;;;;;0.50;99.90;;;;;;5094825;28;20336;-87
2021/12/18 14:44:24;;;;;;;;;;;0.50;99.90;;;;;;5090123;28;20378;-85
2021/12/18 14:47:07;;;;;;;;;;;0.50;99.90;;;;;;5094955;28;20020;-89
2021/12/18 14:49:35;;;;;;;;;;;0.50;99.90;;;;;;5077502;28;19905;-88
2021/12/18 14:52:05;;;;;;;;;;;0.60;99.90;;;;;;5102600;28;19957;-88
2021/12/18 14:54:51;;;;;;;;;;;0.60;99.90;;;;;;5081610;28;19916;-88
2021/12/18 14:57:24;;;;;;;;;;;0.60;99.90;;;;;;5104248;28;19919;-87
2021/12/18 15:00:08;;;;;;;;;;;0.50;99.90;;;;;;5091007;28;19916;-86
2021/12/18 15:02:50;;;;;;;;;;;0.40;99.90;;;;;;5093689;28;19995;-88
2021/12/18 15:05:16;;;;;;;;;;;0.40;99.90;;;;;;5094492;28;19904;-87
2021/12/18 15:07:54;;;;;;;;;;;0.40;99.90;;;;;;5094594;28;20339;-87
2021/12/18 15:10:20;;;;;;;;;;;0.40;99.90;;;;;;5094620;28;19907;-86
2021/12/18 15:12:45;;;;;;;;;;;0.40;99.90;;;;;;5094366;28;19961;-87
2021/12/18 15:15:12;;;;;;;;;;;0.40;99.90;;;;;;5094705;28;19911;-88
2021/12/18 15:17:38;;;;;;;;;;;0.20;99.90;;;;;;5095964;28;19904;-88
2021/12/18 15:20:04;;;;;;;;;;;0.20;99.90;;;;;;5097664;28;19975;-88